This is the latest recevied weather packets stored in our database for station/object VE7KNL-13. If no packets are shown the sender has not sent any weather packets the latest 10 day(s).
| Time | Temp. | Humidity | Pressure | Rain* | Wind** | Luminosity | Snow |
|---|---|---|---|---|---|---|---|
| 1777744838 | 22.22° C | 35% | 1014.3 hPa | 0 mm | - | - | - |
| 1777741217 | 19.44° C | 41% | 1014.8 hPa | 0 mm | - | - | - |
| 1777737017 | 15° C | 52% | 1015.3 hPa | 0 mm | - | - | - |
| 1777732217 | 8.89° C | 79% | 1015.4 hPa | 0 mm | - | - | - |
| 1777731619 | 7.78° C | 84% | 1015.3 hPa | 0 mm | - | - | - |
| 1777729257 | 5.56° C | 87% | 1015.6 hPa | 0 mm | - | - | - |
| 1777728617 | 5° C | 87% | 1015.5 hPa | 0 mm | - | - | - |
| 1777727417 | 5° C | 88% | 1015.3 hPa | 0 mm | - | - | - |
| 1777725637 | 4.44° C | 87% | 1015.2 hPa | 0 mm | - | - | - |
| 1777723217 | 5° C | 86% | 1015.4 hPa | 0 mm | - | - | - |
| 1777721417 | 5° C | 85% | 1015.4 hPa | 0 mm | - | - | - |
| 1777717217 | 5.56° C | 83% | 1015.3 hPa | 0 mm | - | - | - |
| 1777715417 | 5.56° C | 82% | 1015.2 hPa | 0 mm | - | - | - |
| 1777714817 | 5.56° C | 81% | 1015.1 hPa | 0 mm | - | - | - |
| 1777710637 | 7.22° C | 77% | 1015.2 hPa | 0 mm | - | - | - |
| 1777708817 | 7.78° C | 76% | 1015.4 hPa | 0 mm | - | - | - |
| 1777707617 | 7.78° C | 75% | 1015.3 hPa | 0 mm | - | - | - |
| 1777705816 | 8.33° C | 73% | 1015 hPa | 0 mm | - | - | - |
| 1777700418 | 10.56° C | 67% | 1013.9 hPa | 0 mm | - | - | - |
| 1777697417 | 11.67° C | 65% | 1013.2 hPa | 0 mm | - | - | - |
| 1777696217 | 12.22° C | 62% | 1013.1 hPa | 0 mm | - | - | - |
| 1777695617 | 12.78° C | 58% | 1012.7 hPa | 0 mm | - | - | - |
| 1777692617 | 15° C | 54% | 1012.2 hPa | 0 mm | - | - | - |
| 1777692017 | 15° C | 53% | 1011.6 hPa | 0 mm | - | - | - |
| 1777686617 | 20.56° C | 36% | 1010.4 hPa | 0 mm | - | - | - |
* Rain latest hour (hover to see other rain measurements)
** Current wind speed in m/s (hover to see current wind gust speed)